Terminal Aerodrome Forecast
Issued by NWS

Home | Current Version | Previous Version | Text Only | Print | Product List | Glossary On
Versions: 1 2 3 4 5 6 7 8 9 10 11 12 13 14 15 16 17 18 19 20 21 22 23 24
000
FTUS41 KPBZ 291800 AAA
TAFDUJ
TAF AMD
KDUJ 291815Z 2918/3018 17012KT 4SM -FZRASN OVC025
      TEMPO 2918/2920 1 1/2SM -SHSN BKN008
     FM292000 21010G20KT 3SM -SHRASN OVC015
     FM300200 26012G22KT 2SM -SHSN OVC008
     FM300500 29013G23KT 2SM -SHSN OVC004=

USA.gov is the U.S. government's official web portal to all federal, state and local government web resources and services.